createdAt,value
2017-07-28T00:00:07.927Z,98965.70
2017-07-28T00:02:35.927Z,98965.17
2017-07-28T00:05:03.608Z,98958.63
2017-07-28T00:07:31.330Z,98964.22
2017-07-28T00:09:59.138Z,98965.28
2017-07-28T00:12:26.869Z,98964.77
2017-07-28T00:14:54.530Z,98965.68
2017-07-28T00:17:22.497Z,98960.55
2017-07-28T00:19:50.405Z,98960.02
2017-07-28T00:22:18.111Z,98967.84
2017-07-28T00:24:46.097Z,98963.73
2017-07-28T00:27:13.897Z,98975.87
2017-07-28T00:29:41.831Z,98972.48
2017-07-28T00:32:09.627Z,98982.52
2017-07-28T00:34:37.605Z,98988.25
2017-07-28T00:37:05.261Z,98984.52
2017-07-28T00:39:33.302Z,98986.44
2017-07-28T00:42:01.005Z,98983.06
2017-07-28T00:44:28.838Z,98986.34
2017-07-28T00:46:56.581Z,98977.56
2017-07-28T00:49:24.571Z,98977.88
2017-07-28T00:51:52.310Z,98984.23
2017-07-28T00:54:20.182Z,98975.12
2017-07-28T00:56:47.990Z,98976.00
2017-07-28T00:59:15.715Z,98973.64
2017-07-28T01:01:43.706Z,98979.80
2017-07-28T01:04:11.650Z,98978.14
2017-07-28T01:06:39.765Z,98973.05
2017-07-28T01:09:07.744Z,98975.58
2017-07-28T01:11:35.475Z,98989.57
2017-07-28T01:14:03.193Z,98979.41
2017-07-28T01:16:30.982Z,98980.08
2017-07-28T01:18:58.808Z,98979.50
2017-07-28T01:21:26.648Z,98979.41
2017-07-28T01:23:54.383Z,98982.80
2017-07-28T01:26:22.402Z,98983.88
2017-07-28T01:28:50.041Z,98984.28
2017-07-28T01:31:17.929Z,98983.83
2017-07-28T01:33:45.702Z,98986.23
2017-07-28T01:36:13.455Z,98981.59
2017-07-28T01:38:41.506Z,98980.39
2017-07-28T01:41:09.257Z,98984.17
2017-07-28T01:43:37.220Z,98979.17
2017-07-28T01:46:04.924Z,98976.41
2017-07-28T01:48:32.754Z,98985.67
2017-07-28T01:51:01.620Z,98982.38
2017-07-28T01:53:29.552Z,98984.42
2017-07-28T01:55:57.280Z,98976.36
2017-07-28T01:58:25.286Z,98982.06
2017-07-28T02:00:53.314Z,98982.48
2017-07-28T02:03:21.210Z,98979.76
2017-07-28T02:05:49.093Z,98978.91
2017-07-28T02:08:17.166Z,98985.81
2017-07-28T02:10:45.008Z,98989.28
2017-07-28T02:13:12.744Z,98993.71
2017-07-28T02:15:40.765Z,98992.27
2017-07-28T02:18:08.610Z,98988.89
2017-07-28T02:20:36.352Z,98993.67
2017-07-28T02:23:04.365Z,98996.91
2017-07-28T02:25:32.084Z,98997.81
2017-07-28T02:27:59.910Z,98989.41
2017-07-28T02:30:27.868Z,98998.02
2017-07-28T02:32:55.835Z,98999.31
2017-07-28T02:35:23.552Z,98999.20
2017-07-28T02:37:51.419Z,99004.98
2017-07-28T02:40:19.282Z,99000.17
2017-07-28T02:42:47.096Z,99005.46
2017-07-28T02:45:15.065Z,99014.05
2017-07-28T02:47:42.963Z,99008.47
2017-07-28T02:50:10.903Z,99012.34
2017-07-28T02:52:38.944Z,99017.02
2017-07-28T02:55:06.888Z,99010.28
2017-07-28T02:57:34.830Z,99010.78
2017-07-28T03:00:02.782Z,99019.57
2017-07-28T03:02:30.614Z,99019.57
2017-07-28T03:04:58.512Z,99017.85
2017-07-28T03:07:26.442Z,99020.46
2017-07-28T03:09:54.388Z,99021.33
2017-07-28T03:12:22.141Z,99022.93
2017-07-28T03:14:50.172Z,99014.90
2017-07-28T03:17:17.913Z,99014.64
2017-07-28T03:19:45.921Z,99026.02
2017-07-28T03:22:13.949Z,99025.62
2017-07-28T03:24:41.644Z,99030.96
2017-07-28T03:27:09.316Z,99033.92
2017-07-28T03:29:37.025Z,99032.86
2017-07-28T03:32:05.056Z,99028.63
2017-07-28T03:34:32.682Z,99045.09
2017-07-28T03:37:00.551Z,99050.27
2017-07-28T03:39:28.253Z,99054.75
2017-07-28T03:41:55.902Z,99052.04
2017-07-28T03:44:23.928Z,99055.97
2017-07-28T03:46:51.636Z,99064.41
2017-07-28T03:49:19.361Z,99057.06
2017-07-28T03:51:47.328Z,99055.34
2017-07-28T03:54:15.239Z,99055.11
2017-07-28T03:56:43.087Z,99059.73
2017-07-28T03:59:10.966Z,99062.20
2017-07-28T04:01:39.044Z,99061.44
2017-07-28T04:04:06.812Z,99054.94
2017-07-28T04:06:34.562Z,99056.91
2017-07-28T04:09:02.439Z,99061.08
2017-07-28T04:11:30.165Z,99066.77
2017-07-28T04:13:58.228Z,99067.52
2017-07-28T04:16:26.062Z,99056.34
2017-07-28T04:18:53.684Z,99056.30
2017-07-28T04:21:21.407Z,99055.44
2017-07-28T04:23:49.298Z,99062.94
2017-07-28T04:26:17.305Z,99058.09
2017-07-28T04:28:45.376Z,99058.38
2017-07-28T04:31:12.985Z,99056.14
2017-07-28T04:33:40.601Z,99060.52
2017-07-28T04:36:08.454Z,99065.13
2017-07-28T04:38:36.422Z,99064.58
2017-07-28T04:41:04.021Z,99060.98
2017-07-28T04:43:31.678Z,99067.63
2017-07-28T04:45:59.319Z,99062.90
2017-07-28T04:48:26.943Z,99069.95
2017-07-28T04:50:54.654Z,99072.35
2017-07-28T04:53:22.263Z,99078.73
2017-07-28T04:55:49.869Z,99082.77
2017-07-28T04:58:17.553Z,99074.91
2017-07-28T05:00:45.310Z,99076.67
2017-07-28T05:03:12.968Z,99076.70
2017-07-28T05:05:40.629Z,99086.78
2017-07-28T05:08:08.253Z,99091.69
2017-07-28T05:10:35.880Z,99097.00
2017-07-28T05:13:03.555Z,99101.47
2017-07-28T05:15:31.168Z,99100.89
2017-07-28T05:17:58.799Z,99105.55
2017-07-28T05:20:26.463Z,99110.50
2017-07-28T05:22:54.062Z,99110.92
2017-07-28T05:25:21.672Z,99117.91
2017-07-28T05:27:49.332Z,99115.55
2017-07-28T05:30:16.961Z,99120.71
2017-07-28T05:32:44.572Z,99113.52
2017-07-28T05:35:12.236Z,99119.92
2017-07-28T05:37:39.860Z,99115.20
2017-07-28T05:40:07.477Z,99116.30
2017-07-28T05:42:35.158Z,99125.44
2017-07-28T05:45:02.779Z,99120.50
2017-07-28T05:47:30.388Z,99124.98
2017-07-28T05:49:58.142Z,99124.52
2017-07-28T05:52:25.784Z,99125.34
2017-07-28T05:54:53.390Z,99116.05
2017-07-28T05:57:21.063Z,99119.27
2017-07-28T05:59:48.673Z,99115.05
2017-07-28T06:02:16.371Z,99117.23
2017-07-28T06:04:44.045Z,99119.70
2017-07-28T06:07:11.669Z,99119.39
2017-07-28T06:09:39.277Z,99125.20
2017-07-28T06:12:06.943Z,99122.77
2017-07-28T06:14:34.608Z,99120.13
2017-07-28T06:17:02.388Z,99112.41
2017-07-28T06:19:30.049Z,99117.25
2017-07-28T06:21:57.651Z,99113.02
2017-07-28T06:24:25.255Z,99118.08
2017-07-28T06:26:52.983Z,99117.67
2017-07-28T06:29:20.585Z,99108.34
2017-07-28T06:31:48.182Z,99116.25
2017-07-28T06:34:15.873Z,99122.69
2017-07-28T06:36:43.490Z,99126.66
2017-07-28T06:39:11.103Z,99133.20
2017-07-28T06:41:38.936Z,99136.11
2017-07-28T06:44:06.537Z,99130.08
2017-07-28T06:46:34.141Z,99140.50
2017-07-28T06:49:01.800Z,99147.21
2017-07-28T06:51:29.385Z,99143.24
2017-07-28T06:53:57.009Z,99144.87
2017-07-28T06:56:24.690Z,99141.41
2017-07-28T06:58:52.283Z,99138.25
2017-07-28T07:01:19.888Z,99143.65
2017-07-28T07:03:47.616Z,99150.00
2017-07-28T07:06:15.224Z,99145.13
2017-07-28T07:08:42.833Z,99141.98
2017-07-28T07:11:10.494Z,99142.84
2017-07-28T07:13:38.174Z,99146.02
2017-07-28T07:16:05.786Z,99146.34
2017-07-28T07:18:33.447Z,99138.64
2017-07-28T07:21:01.202Z,99137.49
2017-07-28T07:23:28.815Z,99143.84
2017-07-28T07:25:56.467Z,99136.17
2017-07-28T07:28:24.077Z,99139.87
2017-07-28T07:30:51.676Z,99133.15
2017-07-28T07:33:19.355Z,99137.27
2017-07-28T07:35:46.969Z,99139.52
2017-07-28T07:38:14.578Z,99135.72
2017-07-28T07:40:42.255Z,99133.78
2017-07-28T07:43:09.923Z,99132.85
2017-07-28T07:45:37.527Z,99131.89
2017-07-28T07:48:05.174Z,99125.98
2017-07-28T07:50:32.780Z,99130.45
2017-07-28T07:53:00.397Z,99137.91
2017-07-28T07:55:28.053Z,99128.34
2017-07-28T07:57:55.650Z,99130.14
2017-07-28T08:00:23.249Z,99129.50
2017-07-28T08:02:50.915Z,99136.50
2017-07-28T08:05:18.537Z,99129.44
2017-07-28T08:07:46.133Z,99129.88
2017-07-28T08:10:13.970Z,99129.57
2017-07-28T08:12:41.572Z,99137.97
2017-07-28T08:15:09.169Z,99130.45
2017-07-28T08:17:36.843Z,99138.73
2017-07-28T08:20:04.485Z,99130.60
2017-07-28T08:22:32.129Z,99123.06
2017-07-28T08:24:59.824Z,99120.66
2017-07-28T08:27:27.456Z,99127.61
2017-07-28T08:29:55.084Z,99136.02
2017-07-28T08:32:22.738Z,99126.80
2017-07-28T08:34:50.359Z,99127.56
2017-07-28T08:37:17.961Z,99130.26
2017-07-28T08:39:46.096Z,99124.84
2017-07-28T08:42:13.698Z,99129.39
2017-07-28T08:44:41.298Z,99123.64
2017-07-28T08:47:08.981Z,99117.42
2017-07-28T08:49:36.595Z,99116.98
2017-07-28T08:52:04.211Z,99123.20
2017-07-28T08:54:31.908Z,99134.14
2017-07-28T08:56:59.538Z,99124.14
2017-07-28T08:59:27.153Z,99122.44
2017-07-28T09:01:54.827Z,99122.91
2017-07-28T09:04:22.421Z,99120.55
2017-07-28T09:06:50.070Z,99130.44
2017-07-28T09:09:17.756Z,99122.59
2017-07-28T09:11:45.363Z,99132.36
2017-07-28T09:14:12.974Z,99133.67
2017-07-28T09:16:40.650Z,99127.81
2017-07-28T09:19:08.274Z,99132.67
2017-07-28T09:21:35.926Z,99128.77
2017-07-28T09:24:03.622Z,99129.31
2017-07-28T09:26:31.221Z,99127.91
2017-07-28T09:28:58.840Z,99134.66
2017-07-28T09:31:26.536Z,99131.79
2017-07-28T09:33:54.157Z,99127.89
2017-07-28T09:36:21.764Z,99125.37
2017-07-28T09:38:49.507Z,99122.81
2017-07-28T09:41:17.141Z,99126.73
2017-07-28T09:43:44.760Z,99137.44
2017-07-28T09:46:12.478Z,99131.20
2017-07-28T09:48:40.077Z,99140.43
2017-07-28T09:51:07.699Z,99126.13
2017-07-28T09:53:35.375Z,99135.53
2017-07-28T09:56:03.005Z,99139.05
2017-07-28T09:58:30.626Z,99144.83
2017-07-28T10:00:58.319Z,99146.63
2017-07-28T10:03:25.936Z,99132.30
2017-07-28T10:05:53.560Z,99136.68
2017-07-28T10:08:21.308Z,99138.03
2017-07-28T10:10:48.917Z,99142.69
2017-07-28T10:13:16.516Z,99141.25
2017-07-28T10:15:44.190Z,99142.60
2017-07-28T10:18:11.817Z,99146.32
2017-07-28T10:20:39.448Z,99145.24
2017-07-28T10:23:07.261Z,99156.39
2017-07-28T10:25:34.887Z,99139.23
2017-07-28T10:28:02.521Z,99130.39
2017-07-28T10:30:30.197Z,99142.14
2017-07-28T10:32:57.814Z,99137.41
2017-07-28T10:35:25.425Z,99144.73
2017-07-28T10:37:53.113Z,99133.66
2017-07-28T10:40:20.720Z,99138.88
2017-07-28T10:42:48.374Z,99132.02
2017-07-28T10:45:16.042Z,99135.39
2017-07-28T10:47:43.779Z,99141.13
2017-07-28T10:50:11.390Z,99140.39
2017-07-28T10:52:39.066Z,99142.17
2017-07-28T10:55:06.692Z,99148.47
2017-07-28T10:57:34.309Z,99146.11
2017-07-28T11:00:01.990Z,99149.84
2017-07-28T11:02:29.689Z,99149.64
2017-07-28T11:04:57.327Z,99147.31
2017-07-28T11:07:25.021Z,99155.83
2017-07-28T11:09:52.695Z,99142.59
2017-07-28T11:12:20.333Z,99144.94
2017-07-28T11:14:48.167Z,99151.20
2017-07-28T11:17:15.908Z,99143.34
2017-07-28T11:19:43.542Z,99152.89
2017-07-28T11:22:12.932Z,99149.55
2017-07-28T11:24:40.812Z,99145.39
2017-07-28T11:27:08.479Z,99154.44
2017-07-28T11:29:36.162Z,99153.40
2017-07-28T11:32:03.957Z,99152.02
2017-07-28T11:34:31.710Z,99156.80
2017-07-28T11:36:59.383Z,99156.42
2017-07-28T11:39:27.116Z,99157.55
2017-07-28T11:41:54.892Z,99168.09
2017-07-28T11:44:22.640Z,99155.55
2017-07-28T11:46:54.666Z,99153.73
2017-07-28T11:49:22.339Z,99171.44
2017-07-28T11:51:51.131Z,99172.75
2017-07-28T11:54:19.006Z,99183.63
2017-07-28T11:56:46.650Z,99177.17
2017-07-28T11:59:14.453Z,99181.28
2017-07-28T12:01:42.194Z,99189.79
2017-07-28T12:04:09.884Z,99193.91
2017-07-28T12:06:37.563Z,99201.56
2017-07-28T12:09:06.042Z,99194.72
2017-07-28T12:11:33.927Z,99201.20
2017-07-28T12:14:02.670Z,99199.34
2017-07-28T12:16:30.370Z,99204.47
2017-07-28T12:18:57.979Z,99200.13
2017-07-28T12:21:26.071Z,99200.08
2017-07-28T12:23:54.041Z,99197.62
2017-07-28T12:26:21.869Z,99196.38
2017-07-28T12:28:49.989Z,99195.61
2017-07-28T12:31:17.847Z,99203.50
2017-07-28T12:33:45.441Z,99204.91
2017-07-28T12:36:13.171Z,99201.66
2017-07-28T12:38:40.869Z,99206.08
2017-07-28T12:41:08.470Z,99203.11
2017-07-28T12:43:36.176Z,99198.72
2017-07-28T12:46:03.875Z,99195.14
2017-07-28T12:48:31.486Z,99197.27
2017-07-28T12:50:59.091Z,99188.16
2017-07-28T12:53:26.759Z,99186.48
2017-07-28T12:55:54.369Z,99187.19
2017-07-28T12:58:21.980Z,99182.20
2017-07-28T13:00:49.646Z,99190.25
2017-07-28T13:03:17.245Z,99189.14
2017-07-28T13:05:44.862Z,99188.34
2017-07-28T13:08:13.347Z,99191.34
2017-07-28T13:10:41.211Z,99185.41
2017-07-28T13:13:08.850Z,99185.80
2017-07-28T13:15:36.613Z,99197.75
2017-07-28T13:18:04.230Z,99183.45
2017-07-28T13:20:31.841Z,99184.52
2017-07-28T13:22:59.540Z,99182.80
2017-07-28T13:25:27.169Z,99189.12
2017-07-28T13:27:54.783Z,99186.86
2017-07-28T13:30:22.449Z,99177.36
2017-07-28T13:32:50.046Z,99181.84
2017-07-28T13:35:17.677Z,99176.86
2017-07-28T13:37:45.382Z,99181.44
2017-07-28T13:40:12.995Z,99180.20
2017-07-28T13:42:40.619Z,99180.13
2017-07-28T13:45:08.305Z,99181.75
2017-07-28T13:47:35.911Z,99166.80
2017-07-28T13:50:03.528Z,99169.38
2017-07-28T13:52:31.641Z,99170.41
2017-07-28T13:54:59.252Z,99166.52
2017-07-28T13:57:26.854Z,99174.59
2017-07-28T13:59:54.548Z,99178.13
2017-07-28T14:02:22.164Z,99179.73
2017-07-28T14:04:49.797Z,99176.78
2017-07-28T14:07:17.494Z,99178.44
2017-07-28T14:09:45.119Z,99170.75
2017-07-28T14:12:12.727Z,99173.84
2017-07-28T14:14:40.517Z,99171.02
2017-07-28T14:17:08.127Z,99171.41
2017-07-28T14:19:35.753Z,99173.53
2017-07-28T14:22:03.600Z,99167.55
2017-07-28T14:24:31.345Z,99167.50
2017-07-28T14:26:58.969Z,99169.00
2017-07-28T14:29:26.656Z,99169.20
2017-07-28T14:31:54.674Z,99172.75
2017-07-28T14:34:22.325Z,99168.97
2017-07-28T14:36:50.002Z,99166.31
2017-07-28T14:39:17.613Z,99171.30
2017-07-28T14:41:45.237Z,99171.56
2017-07-28T14:44:12.901Z,99166.77
2017-07-28T14:46:40.649Z,99171.27
2017-07-28T14:49:08.281Z,99169.05
2017-07-28T14:51:35.967Z,99168.03
2017-07-28T14:54:03.588Z,99165.89
2017-07-28T14:56:31.229Z,99163.68
2017-07-28T14:58:58.888Z,99166.80
2017-07-28T15:01:26.532Z,99160.73
2017-07-28T15:03:54.146Z,99160.52
2017-07-28T15:06:21.820Z,99173.58
2017-07-28T15:08:49.446Z,99166.80
2017-07-28T15:11:17.063Z,99172.13
2017-07-28T15:13:44.778Z,99171.03
2017-07-28T15:16:12.482Z,99169.61
2017-07-28T15:18:40.086Z,99174.12
2017-07-28T15:21:07.775Z,99173.42
2017-07-28T15:23:35.438Z,99172.86
2017-07-28T15:26:03.357Z,99174.12
2017-07-28T15:28:31.103Z,99171.52
2017-07-28T15:30:58.706Z,99174.87
2017-07-28T15:33:26.336Z,99172.88
2017-07-28T15:35:53.995Z,99169.89
2017-07-28T15:38:21.610Z,99166.25
2017-07-28T15:40:49.215Z,99166.55
2017-07-28T15:43:16.892Z,99164.43
2017-07-28T15:45:44.518Z,99167.41
2017-07-28T15:48:12.177Z,99170.79
2017-07-28T15:50:39.842Z,99181.13
2017-07-28T15:53:07.519Z,99179.05
2017-07-28T15:55:35.191Z,99175.64
2017-07-28T15:58:03.052Z,99179.94
2017-07-28T16:00:31.875Z,99182.76
2017-07-28T16:03:00.688Z,99170.13
2017-07-28T16:05:29.533Z,99187.91
2017-07-28T16:07:57.673Z,99196.28
2017-07-28T16:10:26.076Z,99192.63
2017-07-28T16:12:54.087Z,99204.97
2017-07-28T16:15:22.998Z,99201.58
2017-07-28T16:17:53.449Z,99212.75
2017-07-28T16:20:23.558Z,99211.25
2017-07-28T16:22:51.212Z,99210.97
2017-07-28T16:25:18.828Z,99210.80
2017-07-28T16:27:46.496Z,99217.28
2017-07-28T16:30:14.096Z,99211.29
2017-07-28T16:32:41.703Z,99215.70
2017-07-28T16:35:09.466Z,99220.96
2017-07-28T16:37:37.094Z,99220.64
2017-07-28T16:40:04.709Z,99224.37
2017-07-28T16:42:32.392Z,99222.77
2017-07-28T16:45:00.002Z,99224.50
2017-07-28T16:47:27.593Z,99229.72
2017-07-28T16:49:55.272Z,99232.26
2017-07-28T16:52:22.910Z,99235.47
2017-07-28T16:54:50.573Z,99244.67
2017-07-28T16:57:18.263Z,99234.62
2017-07-28T16:59:45.888Z,99240.06
2017-07-28T17:02:14.246Z,99248.67
2017-07-28T17:04:41.929Z,99253.91
2017-07-28T17:07:09.541Z,99244.52
2017-07-28T17:09:37.170Z,99261.42
2017-07-28T17:12:04.846Z,99269.58
2017-07-28T17:14:32.482Z,99258.83
2017-07-28T17:17:00.126Z,99270.59
2017-07-28T17:19:27.847Z,99273.80
2017-07-28T17:21:55.468Z,99273.38
2017-07-28T17:24:23.157Z,99281.14
2017-07-28T17:26:50.818Z,99279.02
2017-07-28T17:29:18.439Z,99283.94
2017-07-28T17:31:46.075Z,99292.50
2017-07-28T17:34:13.782Z,99298.70
2017-07-28T17:36:41.457Z,99295.11
2017-07-28T17:39:09.113Z,99294.48
2017-07-28T17:41:36.811Z,99302.55
2017-07-28T17:44:04.438Z,99300.84
2017-07-28T17:46:32.073Z,99305.53
2017-07-28T17:48:59.796Z,99305.43
2017-07-28T17:51:27.410Z,99309.77
2017-07-28T17:53:55.037Z,99310.81
2017-07-28T17:56:22.725Z,99318.38
2017-07-28T17:58:50.362Z,99324.67
2017-07-28T18:01:17.986Z,99324.90
2017-07-28T18:03:45.675Z,99332.49
2017-07-28T18:06:13.315Z,99336.57
2017-07-28T18:08:40.947Z,99332.31
2017-07-28T18:11:08.663Z,99334.62
2017-07-28T18:13:36.268Z,99335.98
2017-07-28T18:16:03.911Z,99339.16
2017-07-28T18:18:31.577Z,99340.14
2017-07-28T18:20:59.260Z,99344.77
2017-07-28T18:23:26.862Z,99347.59
2017-07-28T18:25:54.546Z,99354.58
2017-07-28T18:28:22.185Z,99357.03
2017-07-28T18:30:49.934Z,99362.86
2017-07-28T18:33:17.924Z,99356.56
2017-07-28T18:35:45.540Z,99367.67
2017-07-28T18:38:13.158Z,99369.91
2017-07-28T18:40:40.821Z,99368.38
2017-07-28T18:43:08.447Z,99358.38
2017-07-28T18:45:36.077Z,99374.26
2017-07-28T18:48:03.894Z,99370.55
2017-07-28T18:50:31.516Z,99376.70
2017-07-28T18:52:59.132Z,99374.67
2017-07-28T18:55:26.823Z,99377.80
2017-07-28T18:57:54.427Z,99382.22
2017-07-28T19:00:22.071Z,99387.39
2017-07-28T19:02:49.770Z,99387.48
2017-07-28T19:05:17.409Z,99385.80
2017-07-28T19:07:45.078Z,99392.75
2017-07-28T19:10:12.760Z,99396.64
2017-07-28T19:12:40.392Z,99399.14
2017-07-28T19:15:08.006Z,99392.27
2017-07-28T19:17:35.692Z,99401.23
2017-07-28T19:20:03.314Z,99400.68
2017-07-28T19:22:30.985Z,99405.68
2017-07-28T19:24:58.654Z,99409.28
2017-07-28T19:27:26.271Z,99418.43
2017-07-28T19:29:53.881Z,99419.32
2017-07-28T19:32:21.555Z,99418.88
2017-07-28T19:34:49.182Z,99419.02
2017-07-28T19:37:16.806Z,99418.91
2017-07-28T19:39:44.513Z,99418.28
2017-07-28T19:42:12.126Z,99415.83
2017-07-28T19:44:39.767Z,99426.48
2017-07-28T19:47:07.439Z,99440.98
2017-07-28T19:49:35.080Z,99436.56
2017-07-28T19:52:02.719Z,99439.68
2017-07-28T19:54:30.411Z,99441.59
2017-07-28T19:56:58.157Z,99448.27
2017-07-28T19:59:25.777Z,99451.33
2017-07-28T20:01:53.686Z,99448.21
2017-07-28T20:04:21.307Z,99443.73
2017-07-28T20:06:48.921Z,99452.69
2017-07-28T20:09:16.821Z,99453.50
2017-07-28T20:11:44.760Z,99460.75
2017-07-28T20:14:12.377Z,99466.50
2017-07-28T20:16:40.055Z,99474.59
2017-07-28T20:19:07.741Z,99469.48
2017-07-28T20:21:35.801Z,99479.06
2017-07-28T20:24:03.532Z,99473.39
2017-07-28T20:26:31.152Z,99476.17
2017-07-28T20:28:58.769Z,99483.42
2017-07-28T20:31:26.465Z,99484.13
2017-07-28T20:33:54.207Z,99483.20
2017-07-28T20:36:21.813Z,99489.44
2017-07-28T20:38:49.475Z,99492.03
2017-07-28T20:41:17.121Z,99494.77
2017-07-28T20:43:44.740Z,99488.94
2017-07-28T20:46:12.388Z,99496.30
2017-07-28T20:48:40.259Z,99500.09
2017-07-28T20:51:07.959Z,99503.89
2017-07-28T20:53:35.995Z,99516.11
2017-07-28T20:56:03.713Z,99515.44
2017-07-28T20:58:31.402Z,99510.56
2017-07-28T21:00:59.217Z,99513.00
2017-07-28T21:03:26.861Z,99515.46
2017-07-28T21:05:54.534Z,99522.94
2017-07-28T21:08:22.203Z,99523.19
2017-07-28T21:10:49.864Z,99521.98
2017-07-28T21:13:17.704Z,99522.38
2017-07-28T21:15:45.445Z,99522.64
2017-07-28T21:18:13.413Z,99520.91
2017-07-28T21:20:41.333Z,99526.19
2017-07-28T21:23:09.356Z,99528.64
2017-07-28T21:25:37.017Z,99526.74
2017-07-28T21:28:04.626Z,99533.01
2017-07-28T21:30:32.300Z,99537.49
2017-07-28T21:32:59.902Z,99544.13
2017-07-28T21:35:27.513Z,99542.09
2017-07-28T21:37:55.169Z,99540.45
2017-07-28T21:40:22.801Z,99543.32
2017-07-28T21:42:50.412Z,99541.27
2017-07-28T21:45:18.082Z,99542.63
2017-07-28T21:47:45.720Z,99552.39
2017-07-28T21:50:13.344Z,99544.92
2017-07-28T21:52:40.987Z,99545.75
2017-07-28T21:55:08.600Z,99550.48
2017-07-28T21:57:36.216Z,99545.59
2017-07-28T22:00:03.870Z,99550.19
2017-07-28T22:02:31.496Z,99551.26
2017-07-28T22:04:59.137Z,99553.98
2017-07-28T22:07:26.821Z,99546.75
2017-07-28T22:09:54.428Z,99549.12
2017-07-28T22:12:22.037Z,99549.65
2017-07-28T22:14:49.728Z,99548.17
2017-07-28T22:17:17.369Z,99551.70
2017-07-28T22:19:44.978Z,99551.68
2017-07-28T22:22:12.652Z,99550.48
2017-07-28T22:24:40.290Z,99555.63
2017-07-28T22:27:07.947Z,99557.00
2017-07-28T22:29:35.666Z,99557.95
2017-07-28T22:32:03.389Z,99555.63
2017-07-28T22:34:31.115Z,99563.09
2017-07-28T22:36:59.063Z,99568.27
2017-07-28T22:39:26.898Z,99568.55
2017-07-28T22:41:54.641Z,99566.37
2017-07-28T22:44:22.295Z,99566.37
2017-07-28T22:46:49.906Z,99567.17
2017-07-28T22:49:17.521Z,99575.32
2017-07-28T22:51:45.167Z,99575.58
2017-07-28T22:54:12.769Z,99576.15
2017-07-28T22:56:40.370Z,99574.49
2017-07-28T22:59:08.121Z,99582.06
2017-07-28T23:01:35.727Z,99589.88
2017-07-28T23:04:03.347Z,99587.91
2017-07-28T23:06:31.011Z,99590.00
2017-07-28T23:08:58.632Z,99593.36
2017-07-28T23:11:26.256Z,99592.66
2017-07-28T23:13:53.936Z,99595.88
2017-07-28T23:16:21.556Z,99595.16
2017-07-28T23:18:49.168Z,99594.19
2017-07-28T23:21:16.838Z,99594.56
2017-07-28T23:23:44.438Z,99589.50
2017-07-28T23:26:12.037Z,99596.02
2017-07-28T23:28:39.743Z,99593.17
2017-07-28T23:31:07.352Z,99599.02
2017-07-28T23:33:34.964Z,99594.88
2017-07-28T23:36:02.623Z,99592.33
2017-07-28T23:38:30.214Z,99592.64
2017-07-28T23:40:57.858Z,99595.86
2017-07-28T23:43:25.517Z,99597.63
2017-07-28T23:45:53.156Z,99594.06
2017-07-28T23:48:20.788Z,99594.20
2017-07-28T23:50:48.449Z,99596.93
2017-07-28T23:53:16.058Z,99598.75
2017-07-28T23:55:43.692Z,99593.66
2017-07-28T23:58:11.412Z,99591.28
